Time;durP1;ratioP1;P1;durP2;ratioP2;P2;SDS_P1;SDS_P2;PMS_P1;PMS_P2;Temp;Humidity;BMP_temperature;BMP_pressure;BME280_temperature;BME280_humidity;BME280_pressure;Samples;Min_cycle;Max_cycle;Signal;HPM_P1;HPM_P2
2021/03/12 00:02:18;;;;;;;5.37;2.00;;;7.90;99.90;;;;;;5112560;28;20292;-65
2021/03/12 00:04:43;;;;;;;4.97;2.30;;;7.80;99.90;;;;;;5112855;28;20168;-65
2021/03/12 00:07:09;;;;;;;4.57;2.23;;;7.80;99.90;;;;;;5112871;28;20199;-65
2021/03/12 00:09:35;;;;;;;6.93;2.67;;;7.70;99.90;;;;;;5114297;28;20232;-65
2021/03/12 00:12:00;;;;;;;5.77;2.23;;;7.70;99.90;;;;;;5116405;28;20614;-65
2021/03/12 00:14:26;;;;;;;5.00;2.90;;;7.60;99.90;;;;;;5116501;28;20166;-65
2021/03/12 00:16:51;;;;;;;5.50;1.77;;;7.60;99.90;;;;;;5115262;28;20204;-66
2021/03/12 00:19:18;;;;;;;4.83;1.90;;;7.60;99.90;;;;;;5116276;28;20164;-65
2021/03/12 00:21:43;;;;;;;6.20;2.87;;;7.60;99.90;;;;;;5116248;28;20196;-65
2021/03/12 00:24:09;;;;;;;10.87;2.13;;;7.50;99.90;;;;;;5116215;28;20391;-65
2021/03/12 00:26:35;;;;;;;8.80;2.23;;;7.50;99.90;;;;;;5116599;28;20302;-65
2021/03/12 00:29:00;;;;;;;4.73;2.30;;;7.40;99.90;;;;;;5116102;28;20804;-65
2021/03/12 00:31:26;;;;;;;2.57;1.97;;;7.50;99.90;;;;;;5116275;28;20161;-65
2021/03/12 00:33:51;;;;;;;4.63;2.20;;;7.40;99.90;;;;;;5115179;28;20186;-66
2021/03/12 00:36:17;;;;;;;6.40;2.43;;;7.40;99.90;;;;;;5116054;28;20319;-65
2021/03/12 00:38:43;;;;;;;3.50;2.20;;;7.40;99.90;;;;;;5116046;28;20172;-66
2021/03/12 00:41:08;;;;;;;8.10;2.87;;;7.40;99.90;;;;;;5115895;28;20245;-65
2021/03/12 00:43:36;;;;;;;5.23;2.00;;;7.40;99.90;;;;;;5115770;28;20627;-65
2021/03/12 00:46:11;;;;;;;8.87;4.07;;;7.50;99.90;;;;;;5115691;28;20195;-65
2021/03/12 00:48:37;;;;;;;6.57;3.20;;;7.50;99.90;;;;;;5116072;28;20386;-65
2021/03/12 00:51:04;;;;;;;4.73;1.83;;;7.50;99.90;;;;;;5115035;28;20410;-65
2021/03/12 00:53:30;;;;;;;5.10;2.27;;;7.50;99.90;;;;;;5107122;28;20417;-65
2021/03/12 00:55:55;;;;;;;5.20;2.17;;;7.50;99.90;;;;;;5095053;28;20755;-65
2021/03/12 00:58:23;;;;;;;6.57;2.27;;;7.50;99.90;;;;;;5094976;28;20227;-65
2021/03/12 01:00:48;;;;;;;5.83;2.50;;;7.40;99.90;;;;;;5094908;28;20165;-65
2021/03/12 01:03:14;;;;;;;10.00;2.77;;;7.40;99.90;;;;;;5094985;28;20447;-65
2021/03/12 01:05:40;;;;;;;4.40;2.43;;;7.40;99.90;;;;;;5095677;28;20164;-65
2021/03/12 01:08:06;;;;;;;4.90;2.93;;;7.30;99.90;;;;;;5094374;28;20180;-65
2021/03/12 01:10:32;;;;;;;11.70;3.77;;;7.30;99.90;;;;;;5094951;28;20850;-65
2021/03/12 01:12:58;;;;;;;5.57;2.47;;;7.30;99.90;;;;;;5095029;28;20896;-65
2021/03/12 01:15:26;;;;;;;10.67;3.13;;;7.30;99.90;;;;;;5094610;28;20453;-65
2021/03/12 01:17:53;;;;;;;6.60;2.90;;;7.30;99.90;;;;;;5093652;28;20201;-65
2021/03/12 01:20:22;;;;;;;7.77;3.27;;;7.20;99.90;;;;;;5093656;28;20423;-65
2021/03/12 01:22:49;;;;;;;5.73;4.03;;;7.20;99.90;;;;;;5094524;28;20985;-65
2021/03/12 01:25:17;;;;;;;10.87;4.13;;;7.20;99.90;;;;;;5095390;28;20419;-65
2021/03/12 01:27:43;;;;;;;7.93;3.53;;;7.20;99.90;;;;;;5094563;28;20486;-65
2021/03/12 01:32:46;;;;;;;8.60;3.17;;;7.20;99.90;;;;;;5110863;27;20524;-65
2021/03/12 01:35:12;;;;;;;12.47;3.40;;;7.20;99.90;;;;;;5110891;28;20399;-65
2021/03/12 01:37:38;;;;;;;6.80;2.80;;;7.20;99.90;;;;;;5110645;28;20386;-65
2021/03/12 01:40:07;;;;;;;11.03;4.23;;;7.20;99.90;;;;;;5110653;28;20725;-65
2021/03/12 01:42:33;;;;;;;6.50;2.70;;;7.20;99.90;;;;;;5101741;28;20166;-65
2021/03/12 01:44:59;;;;;;;3.43;3.00;;;7.20;99.90;;;;;;5090173;28;20384;-65
2021/03/12 01:47:24;;;;;;;14.13;2.90;;;7.20;99.90;;;;;;5089105;28;20582;-65
2021/03/12 01:49:50;;;;;;;8.60;3.50;;;7.20;99.90;;;;;;5090024;28;20163;-65
2021/03/12 01:52:16;;;;;;;7.03;2.90;;;7.20;99.90;;;;;;5088826;28;20555;-65
2021/03/12 01:54:41;;;;;;;3.83;2.97;;;7.20;99.90;;;;;;5088702;28;20601;-65
2021/03/12 01:57:07;;;;;;;5.53;3.37;;;7.10;99.90;;;;;;5089992;28;20249;-65
2021/03/12 01:59:33;;;;;;;10.00;2.80;;;7.10;99.90;;;;;;5098686;28;20540;-65
2021/03/12 02:02:00;;;;;;;6.57;3.23;;;7.10;99.90;;;;;;5110622;28;20398;-65
2021/03/12 02:04:25;;;;;;;5.00;2.80;;;7.00;99.90;;;;;;5110232;28;20161;-65
2021/03/12 02:06:52;;;;;;;7.53;3.23;;;7.00;99.90;;;;;;5110148;28;20402;-65
2021/03/12 02:09:18;;;;;;;9.27;4.23;;;7.00;99.90;;;;;;5110027;28;20157;-65
2021/03/12 02:11:51;;;;;;;6.80;2.83;;;7.00;99.90;;;;;;5110135;28;20439;-66
2021/03/12 02:14:25;;;;;;;5.80;3.27;;;7.00;99.90;;;;;;5110086;28;20478;-65
2021/03/12 02:17:00;;;;;;;6.00;3.70;;;7.00;99.90;;;;;;5107885;28;20417;-65
2021/03/12 02:22:07;;;;;;;7.10;3.00;;;7.00;99.90;;;;;;5131257;27;20559;-65
2021/03/12 02:24:53;;;;;;;5.77;3.17;;;7.00;99.90;;;;;;5131141;28;20390;-65
2021/03/12 02:27:20;;;;;;;7.63;3.70;;;7.00;99.90;;;;;;5131578;28;20389;-65
2021/03/12 02:29:51;;;;;;;6.63;3.10;;;7.00;99.90;;;;;;5130120;28;20394;-65
2021/03/12 02:32:21;;;;;;;5.33;3.57;;;7.00;99.90;;;;;;5131248;28;20382;-65
2021/03/12 02:34:47;;;;;;;9.30;3.73;;;7.00;99.90;;;;;;5112124;28;20410;-65
2021/03/12 02:37:16;;;;;;;6.03;3.37;;;7.00;99.90;;;;;;5110504;28;20384;-65
2021/03/12 02:39:48;;;;;;;7.57;3.23;;;7.00;99.90;;;;;;5110232;28;20389;-65
2021/03/12 02:42:15;;;;;;;5.27;3.40;;;7.00;99.90;;;;;;5110824;28;20452;-65
2021/03/12 02:44:41;;;;;;;6.50;2.80;;;7.00;99.90;;;;;;5110443;28;20414;-65
2021/03/12 02:47:14;;;;;;;6.40;2.97;;;7.00;99.90;;;;;;5110018;28;20446;-65
2021/03/12 02:49:40;;;;;;;5.87;2.70;;;7.00;99.90;;;;;;5109714;28;20402;-65
2021/03/12 02:52:06;;;;;;;5.60;3.37;;;7.10;99.90;;;;;;5109020;28;20389;-65
2021/03/12 02:54:33;;;;;;;6.17;3.30;;;7.10;99.90;;;;;;5110468;28;20908;-65
2021/03/12 02:56:59;;;;;;;7.40;3.43;;;7.00;99.90;;;;;;5110184;28;20805;-65
2021/03/12 02:59:26;;;;;;;9.10;2.70;;;7.00;99.90;;;;;;5110531;28;20417;-65
2021/03/12 03:01:53;;;;;;;7.37;2.50;;;7.10;99.90;;;;;;5109960;28;20196;-66
2021/03/12 03:04:21;;;;;;;7.57;2.87;;;7.10;99.90;;;;;;5109907;28;20402;-66
2021/03/12 03:06:47;;;;;;;10.93;2.70;;;7.10;99.90;;;;;;5111788;28;20884;-65
2021/03/12 03:09:18;;;;;;;5.73;2.10;;;7.10;99.90;;;;;;5130903;28;20484;-65
2021/03/12 03:11:44;;;;;;;11.40;2.70;;;7.10;99.90;;;;;;5129264;28;20452;-65
2021/03/12 03:14:11;;;;;;;14.50;3.33;;;7.10;99.90;;;;;;5130407;27;20397;-66
2021/03/12 03:16:38;;;;;;;9.60;3.30;;;7.10;99.90;;;;;;5130238;27;20425;-65
2021/03/12 03:19:07;;;;;;;10.60;3.20;;;7.10;99.90;;;;;;5130227;28;20481;-65
2021/03/12 03:21:34;;;;;;;8.83;2.73;;;7.10;99.90;;;;;;5130150;28;20468;-65
2021/03/12 03:23:59;;;;;;;6.80;2.90;;;7.00;99.90;;;;;;5128055;28;20424;-65
2021/03/12 03:26:25;;;;;;;9.60;3.67;;;7.10;99.90;;;;;;5130098;27;20480;-65
2021/03/12 03:28:51;;;;;;;10.83;3.40;;;7.00;99.90;;;;;;5130067;28;20163;-65
2021/03/12 03:31:17;;;;;;;8.13;3.20;;;7.10;99.90;;;;;;5129082;28;20159;-65
2021/03/12 03:33:42;;;;;;;9.57;2.80;;;7.10;99.90;;;;;;5115751;28;20403;-65
2021/03/12 03:36:08;;;;;;;10.20;2.87;;;7.10;99.90;;;;;;5117007;28;20202;-66
2021/03/12 03:38:33;;;;;;;10.17;2.70;;;7.10;99.90;;;;;;5116122;28;20214;-66
2021/03/12 03:41:05;;;;;;;12.30;2.97;;;7.10;99.90;;;;;;5115151;28;20195;-66
2021/03/12 03:43:36;;;;;;;7.83;2.63;;;7.10;99.90;;;;;;5114915;28;20250;-66
2021/03/12 03:46:04;;;;;;;8.10;2.67;;;7.00;99.90;;;;;;5116054;28;20524;-66
2021/03/12 03:48:30;;;;;;;8.63;3.77;;;7.00;99.90;;;;;;5116457;28;20780;-64
2021/03/12 03:50:57;;;;;;;9.10;3.47;;;7.00;99.90;;;;;;5116314;28;20406;-64
2021/03/12 03:53:22;;;;;;;8.37;3.13;;;7.00;99.90;;;;;;5108124;28;20901;-64
2021/03/12 03:55:49;;;;;;;8.73;4.13;;;7.00;99.90;;;;;;5095323;28;20457;-64
2021/03/12 03:58:16;;;;;;;9.17;3.23;;;7.00;99.90;;;;;;5096075;28;20184;-64
2021/03/12 04:00:43;;;;;;;9.73;3.80;;;7.00;99.90;;;;;;5095160;28;20947;-64
2021/03/12 04:03:09;;;;;;;12.83;4.83;;;7.00;99.90;;;;;;5095518;28;20399;-64
2021/03/12 04:05:35;;;;;;;6.43;3.67;;;6.90;99.90;;;;;;5095182;28;20529;-64
2021/03/12 04:08:01;;;;;;;12.90;4.67;;;7.00;99.90;;;;;;5093826;28;20452;-64
2021/03/12 04:10:28;;;;;;;13.33;4.03;;;7.00;99.90;;;;;;5095064;28;20798;-64
2021/03/12 04:12:55;;;;;;;7.70;3.73;;;7.00;99.90;;;;;;5094017;28;20210;-64
2021/03/12 04:15:22;;;;;;;10.00;4.40;;;7.00;99.90;;;;;;5095476;28;20419;-64
2021/03/12 04:17:48;;;;;;;12.73;4.47;;;6.90;99.90;;;;;;5095257;28;20431;-64
2021/03/12 04:20:14;;;;;;;9.07;4.53;;;6.90;99.90;;;;;;5094673;28;20829;-64
2021/03/12 04:22:40;;;;;;;13.70;4.03;;;7.00;99.90;;;;;;5094895;28;20403;-64
2021/03/12 04:25:07;;;;;;;7.10;3.77;;;7.00;99.90;;;;;;5094820;28;20482;-64
2021/03/12 04:27:34;;;;;;;11.23;3.87;;;7.00;99.90;;;;;;5094790;28;20407;-64
2021/03/12 04:30:00;;;;;;;13.30;3.13;;;7.00;99.90;;;;;;5094704;28;20760;-64
2021/03/12 04:32:26;;;;;;;10.07;3.40;;;7.00;99.90;;;;;;5095200;28;20407;-64
2021/03/12 04:34:52;;;;;;;12.77;3.93;;;7.00;99.90;;;;;;5094765;28;20391;-64
2021/03/12 04:37:18;;;;;;;12.83;3.90;;;7.00;99.90;;;;;;5094657;28;20396;-64
2021/03/12 04:39:44;;;;;;;10.23;4.10;;;7.00;99.90;;;;;;5094451;28;20159;-64
2021/03/12 04:42:12;;;;;;;8.63;3.30;;;7.00;99.90;;;;;;5094468;28;20427;-64
2021/03/12 04:44:38;;;;;;;8.63;3.37;;;7.00;99.90;;;;;;5093689;28;20396;-64
2021/03/12 04:47:05;;;;;;;7.07;3.47;;;7.00;99.90;;;;;;5112995;28;20886;-64
2021/03/12 04:49:30;;;;;;;8.97;3.20;;;7.00;99.90;;;;;;5103246;28;20424;-64
2021/03/12 04:51:57;;;;;;;6.43;3.07;;;7.10;99.90;;;;;;5099668;28;20438;-64
2021/03/12 04:54:23;;;;;;;8.00;3.03;;;7.10;99.90;;;;;;5099731;28;20852;-64
2021/03/12 04:56:48;;;;;;;11.13;3.50;;;7.10;99.90;;;;;;5105753;28;20439;-64
2021/03/12 04:59:14;;;;;;;14.27;3.60;;;7.10;99.90;;;;;;5102308;28;20184;-64
2021/03/12 05:01:43;;;;;;;6.73;2.90;;;7.10;99.90;;;;;;5108440;28;20197;-64
2021/03/12 05:04:10;;;;;;;9.40;3.10;;;7.10;99.90;;;;;;5094248;28;20394;-64
2021/03/12 05:06:40;;;;;;;10.33;3.77;;;7.10;99.90;;;;;;5093572;28;20440;-64
2021/03/12 05:09:09;;;;;;;9.03;3.50;;;7.10;99.90;;;;;;5094115;28;20407;-64
2021/03/12 05:11:35;;;;;;;11.17;3.97;;;7.10;99.90;;;;;;5094250;28;20756;-64
2021/03/12 05:14:01;;;;;;;11.10;2.77;;;7.10;99.90;;;;;;5093876;28;20402;-64
2021/03/12 05:16:26;;;;;;;12.20;3.50;;;7.10;99.90;;;;;;5093942;28;20165;-64
2021/03/12 05:18:52;;;;;;;12.23;3.07;;;7.20;99.90;;;;;;5099871;28;20641;-64
2021/03/12 05:21:17;;;;;;;10.20;4.30;;;7.10;99.90;;;;;;5108014;28;20569;-64
2021/03/12 05:23:43;;;;;;;10.10;3.40;;;7.10;99.90;;;;;;5113248;28;20176;-64
2021/03/12 05:26:10;;;;;;;19.00;4.33;;;7.10;99.90;;;;;;5094773;28;20190;-64
2021/03/12 05:28:35;;;;;;;8.50;3.00;;;7.10;99.90;;;;;;5092813;28;20181;-64
2021/03/12 05:31:01;;;;;;;12.40;2.90;;;7.10;99.90;;;;;;5093704;28;20477;-64
2021/03/12 05:33:27;;;;;;;12.93;3.77;;;7.10;99.90;;;;;;5093596;28;20181;-64
2021/03/12 05:35:52;;;;;;;10.80;3.90;;;7.10;99.90;;;;;;5093535;28;20193;-64
2021/03/12 05:38:18;;;;;;;7.30;3.70;;;7.10;99.90;;;;;;5093669;28;20166;-64
2021/03/12 05:40:43;;;;;;;17.60;4.40;;;7.10;99.90;;;;;;5093801;28;20220;-64
2021/03/12 05:43:10;;;;;;;6.50;3.07;;;7.00;99.90;;;;;;5093463;28;20157;-64
2021/03/12 05:45:36;;;;;;;16.23;4.40;;;7.00;99.90;;;;;;5093405;28;20248;-64
2021/03/12 05:48:04;;;;;;;8.93;3.60;;;7.00;99.90;;;;;;5093338;28;20394;-65
2021/03/12 05:50:30;;;;;;;16.77;4.60;;;7.00;99.90;;;;;;5093390;28;20396;-64
2021/03/12 05:52:55;;;;;;;13.80;4.03;;;7.00;99.90;;;;;;5093729;28;20406;-64
2021/03/12 05:55:21;;;;;;;8.83;3.90;;;7.00;99.90;;;;;;5092870;28;20168;-64
2021/03/12 05:57:47;;;;;;;17.53;4.50;;;7.00;99.90;;;;;;5103876;28;20593;-65
2021/03/12 06:00:14;;;;;;;11.03;4.13;;;7.00;99.90;;;;;;5102902;28;20209;-64
2021/03/12 06:02:40;;;;;;;13.20;4.67;;;7.00;99.90;;;;;;5108912;28;20923;-65
2021/03/12 06:05:08;;;;;;;12.20;3.93;;;7.00;99.90;;;;;;5094842;28;20397;-65
2021/03/12 06:07:35;;;;;;;9.33;3.90;;;7.00;99.90;;;;;;5112586;28;20153;-65
2021/03/12 06:10:02;;;;;;;12.70;5.50;;;7.00;99.90;;;;;;5112750;28;20395;-65
2021/03/12 06:12:27;;;;;;;9.83;4.10;;;7.00;99.90;;;;;;5102811;28;20491;-64
2021/03/12 06:14:58;;;;;;;18.90;4.80;;;7.00;99.90;;;;;;5093784;28;20412;-64
2021/03/12 06:17:45;;;;;;;13.03;4.40;;;7.00;99.90;;;;;;5091932;28;20154;-64
2021/03/12 06:20:14;;;;;;;15.83;4.63;;;7.10;99.90;;;;;;5091981;28;20841;-65
2021/03/12 06:25:32;;;;;;;11.00;4.80;;;7.10;99.90;;;;;;5110972;27;20844;-64
2021/03/12 06:30:49;;;;;;;7.80;3.20;;;7.10;99.90;;;;;;5129256;27;20518;-64
2021/03/12 06:33:35;;;;;;;12.03;4.20;;;7.10;99.90;;;;;;5111119;28;20733;-65
2021/03/12 06:36:03;;;;;;;13.37;3.80;;;7.10;99.90;;;;;;5109636;28;20149;-65
2021/03/12 06:38:29;;;;;;;7.10;3.40;;;7.20;99.90;;;;;;5109515;28;20399;-65
2021/03/12 06:40:54;;;;;;;8.30;3.40;;;7.10;99.90;;;;;;5108967;28;20750;-65
2021/03/12 06:43:25;;;;;;;12.73;3.50;;;7.20;99.90;;;;;;5109305;28;20188;-64
2021/03/12 06:48:30;;;;;;;8.77;3.13;;;7.20;99.90;;;;;;5122486;27;20584;-64
2021/03/12 06:53:41;;;;;;;8.13;4.10;;;7.30;99.90;;;;;;5110691;27;20853;-65
2021/03/12 06:58:58;;;;;;;15.87;3.93;;;7.40;99.90;;;;;;5090616;28;20513;-65
2021/03/12 07:01:24;;;;;;;10.77;4.67;;;7.40;99.90;;;;;;5081665;28;20979;-65
2021/03/12 07:04:10;;;;;;;10.97;4.00;;;7.40;99.90;;;;;;5071079;28;20385;-65
2021/03/12 07:06:44;;;;;;;10.40;4.40;;;7.40;99.90;;;;;;5080454;28;20553;-65
2021/03/12 07:09:10;;;;;;;18.17;4.70;;;7.50;99.90;;;;;;5071518;28;20416;-65
2021/03/12 07:11:36;;;;;;;12.93;4.63;;;7.50;99.90;;;;;;5073955;28;20842;-65
2021/03/12 07:14:03;;;;;;;15.70;4.30;;;7.50;99.90;;;;;;5088611;28;20177;-65
2021/03/12 07:16:28;;;;;;;13.90;4.13;;;7.50;99.90;;;;;;5068796;28;20454;-65
2021/03/12 07:18:55;;;;;;;18.50;4.63;;;7.60;99.90;;;;;;5069956;28;20894;-64
2021/03/12 07:21:23;;;;;;;5.90;3.63;;;7.60;99.90;;;;;;5069943;28;20247;-64
2021/03/12 07:23:52;;;;;;;11.57;4.07;;;7.60;99.90;;;;;;5069843;28;20783;-64
2021/03/12 07:26:19;;;;;;;10.50;3.27;;;7.70;99.90;;;;;;5085320;28;20459;-64
2021/03/12 07:28:46;;;;;;;13.83;4.37;;;7.80;99.90;;;;;;5082022;28;20481;-64
2021/03/12 07:31:15;;;;;;;11.27;4.30;;;7.90;99.90;;;;;;5077795;28;20416;-65
2021/03/12 07:33:45;;;;;;;10.97;4.10;;;7.90;99.90;;;;;;5081441;28;20914;-65
2021/03/12 07:36:13;;;;;;;10.10;3.87;;;8.00;99.90;;;;;;5078843;28;20416;-65
2021/03/12 07:38:41;;;;;;;9.70;4.40;;;8.10;99.90;;;;;;5079868;28;20467;-65
2021/03/12 07:41:07;;;;;;;12.13;3.83;;;8.20;99.90;;;;;;5078518;28;20483;-65
2021/03/12 07:43:36;;;;;;;6.47;4.10;;;8.30;99.90;;;;;;5083170;28;20788;-64
2021/03/12 07:46:04;;;;;;;11.47;3.10;;;8.40;99.90;;;;;;5073821;28;20456;-64
2021/03/12 07:48:31;;;;;;;10.60;3.40;;;8.40;99.90;;;;;;5076771;28;20433;-64
2021/03/12 07:51:14;;;;;;;16.60;4.87;;;8.50;99.90;;;;;;5076221;28;20415;-64
2021/03/12 07:53:59;;;;;;;12.07;3.40;;;8.50;99.90;;;;;;5080080;28;20818;-65
2021/03/12 07:59:21;;;;;;;8.80;3.87;;;8.60;99.90;;;;;;5131662;27;20534;-66
2021/03/12 08:01:55;;;;;;;13.70;4.27;;;8.60;99.90;;;;;;5123280;28;20420;-64
2021/03/12 08:04:33;;;;;;;9.70;4.30;;;8.70;99.90;;;;;;5128217;28;20214;-64
2021/03/12 08:06:59;;;;;;;8.80;3.50;;;8.70;99.90;;;;;;5119381;28;20800;-64
2021/03/12 08:09:40;;;;;;;10.47;4.23;;;8.80;99.90;;;;;;5115726;28;20428;-64
2021/03/12 08:12:06;;;;;;;9.90;3.10;;;8.90;99.90;;;;;;5116875;28;20430;-65
2021/03/12 08:14:32;;;;;;;13.20;3.80;;;9.10;99.90;;;;;;5125176;28;20896;-65
2021/03/12 08:19:36;;;;;;;16.00;4.67;;;9.20;99.90;;;;;;5111179;27;20872;-65
2021/03/12 08:25:06;;;;;;;12.10;3.50;;;9.30;99.90;;;;;;5131486;27;20885;-64
2021/03/12 08:27:48;;;;;;;14.43;4.23;;;9.30;99.90;;;;;;5131437;28;20391;-65
2021/03/12 08:33:27;;;;;;;20.80;4.70;;;9.30;99.90;;;;;;5131688;27;20572;-64
2021/03/12 08:35:55;;;;;;;10.90;3.63;;;9.30;99.90;;;;;;5131673;28;20380;-65
2021/03/12 08:41:01;;;;;;;9.50;4.13;;;9.30;99.90;;;;;;5126788;27;20580;-65
2021/03/12 08:43:29;;;;;;;11.90;3.97;;;9.50;99.90;;;;;;5110877;28;20890;-65
2021/03/12 08:45:57;;;;;;;11.83;4.10;;;9.60;99.90;;;;;;5111018;28;20756;-65
2021/03/12 08:51:06;;;;;;;10.73;4.33;;;9.80;99.90;;;;;;5131454;27;20917;-66
2021/03/12 08:53:36;;;;;;;12.93;3.43;;;9.90;99.90;;;;;;5122361;28;20492;-66
2021/03/12 08:56:04;;;;;;;7.10;3.17;;;9.90;99.90;;;;;;5110775;28;20381;-66
2021/03/12 08:58:32;;;;;;;14.67;4.23;;;9.90;99.90;;;;;;5110219;28;20371;-67
2021/03/12 09:01:07;;;;;;;11.47;4.63;;;9.70;99.90;;;;;;5118377;28;20433;-64
2021/03/12 09:03:34;;;;;;;8.60;3.30;;;9.70;99.90;;;;;;5129234;28;20384;-65
2021/03/12 09:06:04;;;;;;;10.33;3.40;;;9.80;99.90;;;;;;5110753;28;20416;-65
2021/03/12 09:08:31;;;;;;;9.33;3.57;;;9.80;99.90;;;;;;5110814;28;20963;-65
2021/03/12 09:10:57;;;;;;;11.77;3.53;;;9.80;99.90;;;;;;5109484;28;20806;-64
2021/03/12 09:13:27;;;;;;;9.87;3.67;;;9.80;99.90;;;;;;5109127;28;20415;-65
2021/03/12 09:15:53;;;;;;;8.50;3.13;;;10.00;99.90;;;;;;5109369;28;20871;-65
2021/03/12 09:18:21;;;;;;;12.57;4.00;;;10.10;99.90;;;;;;5109425;28;20446;-65
2021/03/12 09:20:51;;;;;;;8.83;3.77;;;10.20;99.90;;;;;;5110136;28;20166;-65
2021/03/12 09:23:18;;;;;;;8.17;2.83;;;10.30;99.90;;;;;;5109147;28;20444;-64
2021/03/12 09:25:43;;;;;;;9.00;3.40;;;10.40;99.90;;;;;;5111128;28;20436;-64
2021/03/12 09:28:11;;;;;;;13.90;3.70;;;10.40;99.90;;;;;;5117046;28;20934;-64
2021/03/12 09:30:42;;;;;;;7.53;2.97;;;10.40;99.90;;;;;;5119862;28;20199;-64
2021/03/12 09:33:09;;;;;;;12.00;3.57;;;10.40;99.90;;;;;;5113187;28;20454;-64
2021/03/12 09:35:40;;;;;;;10.30;3.30;;;10.30;99.90;;;;;;5129458;28;20391;-64
2021/03/12 09:38:07;;;;;;;13.13;3.90;;;10.30;99.90;;;;;;5110709;28;20771;-64
2021/03/12 09:43:09;;;;;;;12.43;4.10;;;10.30;99.90;;;;;;5111034;27;20511;-64
2021/03/12 09:45:36;;;;;;;9.73;3.60;;;10.40;99.90;;;;;;5109830;28;20455;-64
2021/03/12 09:48:04;;;;;;;13.17;3.60;;;10.50;99.90;;;;;;5109904;28;20391;-64
2021/03/12 09:50:34;;;;;;;9.07;3.33;;;10.50;99.90;;;;;;5109820;28;20477;-65
2021/03/12 09:53:05;;;;;;;10.87;3.70;;;10.50;99.90;;;;;;5105334;28;20912;-65
2021/03/12 09:55:33;;;;;;;14.73;5.13;;;10.40;99.90;;;;;;5091407;28;20548;-65
2021/03/12 09:57:59;;;;;;;9.50;3.37;;;10.50;99.90;;;;;;5090458;28;20381;-65
2021/03/12 10:00:25;;;;;;;12.60;4.17;;;10.60;99.90;;;;;;5090442;28;20381;-65
2021/03/12 10:02:55;;;;;;;11.87;3.60;;;10.70;99.90;;;;;;5090443;28;20189;-65
2021/03/12 10:05:23;;;;;;;10.40;5.03;;;10.90;99.90;;;;;;5090532;28;20385;-65
2021/03/12 10:07:50;;;;;;;12.17;4.40;;;10.90;99.90;;;;;;5090287;28;20385;-65
2021/03/12 10:10:25;;;;;;;19.20;4.73;;;11.00;99.90;;;;;;5090003;28;20415;-65
2021/03/12 10:12:54;;;;;;;10.13;4.40;;;11.00;99.90;;;;;;5089365;28;20428;-65
2021/03/12 10:15:22;;;;;;;9.90;3.27;;;10.80;99.90;;;;;;5088668;28;20497;-65
2021/03/12 10:17:49;;;;;;;13.00;3.93;;;10.70;99.90;;;;;;5088934;28;20491;-65
2021/03/12 10:22:56;;;;;;;9.40;3.53;;;10.70;99.90;;;;;;5131622;27;20512;-65
2021/03/12 10:25:32;;;;;;;10.87;3.10;;;10.60;99.90;;;;;;5121290;28;20398;-66
2021/03/12 10:28:08;;;;;;;7.30;3.93;;;10.60;99.90;;;;;;5123303;28;20437;-65
2021/03/12 10:30:37;;;;;;;8.73;3.40;;;10.70;99.90;;;;;;5111592;28;20486;-65
2021/03/12 10:33:21;;;;;;;8.87;3.50;;;10.80;99.90;;;;;;5110812;28;20418;-65
2021/03/12 10:35:50;;;;;;;11.00;3.90;;;10.90;99.90;;;;;;5121405;28;20438;-65
2021/03/12 10:43:32;;;;;;;8.73;2.90;;;10.90;99.90;;;;;;5110999;27;21041;-66
2021/03/12 10:46:01;;;;;;;6.90;3.20;;;10.90;99.90;;;;;;5108996;28;20432;-65
2021/03/12 10:48:28;;;;;;;13.17;3.50;;;10.80;99.90;;;;;;5109943;28;20394;-65
2021/03/12 10:53:42;;;;;;;10.40;3.73;;;10.90;99.90;;;;;;5131337;27;21050;-65
2021/03/12 10:56:07;;;;;;;7.20;3.00;;;11.10;99.90;;;;;;5131263;28;20391;-64
2021/03/12 10:58:35;;;;;;;11.40;2.80;;;11.20;99.90;;;;;;5131565;28;20797;-65
2021/03/12 11:03:46;;;;;;;10.77;3.50;;;11.30;99.90;;;;;;5121267;27;20575;-65
2021/03/12 11:06:13;;;;;;;12.80;4.03;;;11.40;99.90;;;;;;5111082;28;20790;-65
2021/03/12 11:08:40;;;;;;;13.40;3.43;;;11.50;98.90;;;;;;5110915;28;20384;-65
2021/03/12 11:11:07;;;;;;;10.00;3.97;;;11.60;99.00;;;;;;5109750;28;20431;-65
2021/03/12 11:13:34;;;;;;;9.53;2.80;;;11.70;98.30;;;;;;5110238;28;20407;-65
2021/03/12 11:16:00;;;;;;;8.70;2.87;;;11.70;96.00;;;;;;5111165;28;20416;-65
2021/03/12 11:18:28;;;;;;;9.50;2.43;;;11.60;95.70;;;;;;5110703;28;20430;-65
2021/03/12 11:20:55;;;;;;;10.40;3.00;;;11.70;96.00;;;;;;5109381;28;20435;-65
2021/03/12 11:23:20;;;;;;;10.53;2.60;;;11.60;96.40;;;;;;5110482;28;20444;-65
2021/03/12 11:25:46;;;;;;;9.80;3.40;;;11.70;94.70;;;;;;5110603;27;20399;-65
2021/03/12 11:28:11;;;;;;;12.03;2.63;;;11.70;94.70;;;;;;5110662;28;20159;-65
2021/03/12 11:30:37;;;;;;;5.93;2.43;;;11.70;93.50;;;;;;5110803;28;20154;-65
2021/03/12 11:33:03;;;;;;;8.37;3.40;;;11.80;93.40;;;;;;5107885;28;20539;-65
2021/03/12 11:35:29;;;;;;;4.10;2.43;;;11.90;93.80;;;;;;5108416;28;20428;-65
2021/03/12 11:37:55;;;;;;;8.20;2.80;;;12.00;94.10;;;;;;5107387;28;20436;-65
2021/03/12 11:40:21;;;;;;;7.53;3.10;;;12.10;95.30;;;;;;5106967;28;20427;-65
2021/03/12 11:42:46;;;;;;;7.20;2.33;;;12.20;93.40;;;;;;5109695;28;20496;-65
2021/03/12 11:45:15;;;;;;;10.77;2.60;;;12.20;93.10;;;;;;5102174;28;20166;-65
2021/03/12 11:47:41;;;;;;;5.40;2.70;;;12.20;92.50;;;;;;5109431;28;20198;-65
2021/03/12 11:50:10;;;;;;;6.90;3.27;;;12.30;92.10;;;;;;5089864;28;20427;-64
2021/03/12 11:52:36;;;;;;;9.87;3.43;;;12.20;92.30;;;;;;5089717;28;20405;-64
2021/03/12 11:55:04;;;;;;;7.07;2.80;;;12.20;91.30;;;;;;5088578;28;20929;-64
2021/03/12 11:57:29;;;;;;;7.17;3.00;;;12.20;91.50;;;;;;5089306;28;20416;-64
2021/03/12 11:59:55;;;;;;;12.60;3.50;;;12.20;90.90;;;;;;5105484;28;20420;-64
2021/03/12 12:02:20;;;;;;;4.93;2.30;;;12.20;90.70;;;;;;5109659;28;20259;-64
2021/03/12 12:04:46;;;;;;;6.60;2.27;;;12.10;89.90;;;;;;5089773;28;20276;-64
2021/03/12 12:07:13;;;;;;;10.87;3.03;;;12.10;90.00;;;;;;5088088;28;20155;-64
2021/03/12 12:09:41;;;;;;;9.07;2.67;;;12.10;90.20;;;;;;5089618;28;20557;-65
2021/03/12 12:12:07;;;;;;;7.73;2.33;;;12.00;89.50;;;;;;5089260;28;20424;-64
2021/03/12 12:14:33;;;;;;;7.43;2.23;;;11.90;90.10;;;;;;5079025;28;20397;-64
2021/03/12 12:16:59;;;;;;;9.27;3.03;;;11.90;89.60;;;;;;5075861;28;20754;-64
2021/03/12 12:19:25;;;;;;;14.13;3.10;;;12.00;90.30;;;;;;5081769;28;20583;-64
2021/03/12 12:21:50;;;;;;;6.33;3.13;;;12.10;89.60;;;;;;5082599;28;20548;-64
2021/03/12 12:24:16;;;;;;;9.10;4.10;;;12.20;90.00;;;;;;5085197;28;20261;-64
2021/03/12 12:26:42;;;;;;;8.73;2.70;;;12.30;90.40;;;;;;5076969;28;20155;-64
2021/03/12 12:29:09;;;;;;;7.43;3.23;;;12.30;87.20;;;;;;5084295;28;20429;-64
2021/03/12 12:31:35;;;;;;;6.70;3.07;;;12.40;88.00;;;;;;5087984;28;20179;-64
2021/03/12 12:34:01;;;;;;;5.00;2.60;;;12.50;87.70;;;;;;5082339;28;20413;-64
2021/03/12 12:36:28;;;;;;;8.00;3.50;;;12.40;83.60;;;;;;5084074;28;20488;-64
2021/03/12 12:38:55;;;;;;;5.63;2.53;;;12.40;83.50;;;;;;5084664;28;20493;-64
2021/03/12 12:41:21;;;;;;;12.87;2.73;;;12.40;82.90;;;;;;5075208;28;20855;-64
2021/03/12 12:43:48;;;;;;;7.33;2.10;;;12.40;81.80;;;;;;5077952;28;20396;-64
2021/03/12 12:46:14;;;;;;;9.03;2.83;;;12.40;82.20;;;;;;5079422;28;20888;-64
2021/03/12 12:48:40;;;;;;;7.53;2.40;;;12.30;81.50;;;;;;5078816;28;20421;-64
2021/03/12 12:51:06;;;;;;;7.60;2.00;;;12.30;81.20;;;;;;5084192;28;20504;-64
2021/03/12 12:53:32;;;;;;;8.47;2.33;;;12.10;81.10;;;;;;5079601;28;20274;-64
2021/03/12 12:55:57;;;;;;;8.33;2.70;;;12.10;80.70;;;;;;5088328;28;20507;-64
2021/03/12 12:58:23;;;;;;;3.23;1.83;;;12.00;79.80;;;;;;5092810;28;20155;-64
2021/03/12 13:00:48;;;;;;;8.00;2.60;;;11.90;80.10;;;;;;5093479;28;20159;-64
2021/03/12 13:03:14;;;;;;;8.23;2.60;;;11.90;79.60;;;;;;5078590;28;20214;-64
2021/03/12 13:05:40;;;;;;;6.03;2.40;;;11.80;80.00;;;;;;5073465;28;20152;-64
2021/03/12 13:08:06;;;;;;;9.10;3.20;;;11.60;80.40;;;;;;5073190;28;20151;-64
2021/03/12 13:10:33;;;;;;;8.10;4.43;;;11.70;81.80;;;;;;5073503;28;20168;-64
2021/03/12 13:12:59;;;;;;;8.50;2.97;;;11.80;84.50;;;;;;5073291;28;20394;-64
2021/03/12 13:15:24;;;;;;;12.37;2.00;;;11.90;83.60;;;;;;5074575;28;20405;-64
2021/03/12 13:17:50;;;;;;;8.10;2.90;;;12.00;82.20;;;;;;5074908;28;20242;-64
2021/03/12 13:20:19;;;;;;;8.00;2.00;;;11.90;81.20;;;;;;5074214;28;20265;-64
2021/03/12 13:22:46;;;;;;;9.07;2.37;;;11.80;82.20;;;;;;5074353;28;20201;-64
2021/03/12 13:25:13;;;;;;;6.43;2.40;;;11.80;84.00;;;;;;5073975;28;20871;-64
2021/03/12 13:27:39;;;;;;;6.97;2.50;;;11.80;85.70;;;;;;5073184;28;20394;-64
2021/03/12 13:30:07;;;;;;;9.13;3.10;;;11.80;87.10;;;;;;5074599;28;20398;-64
2021/03/12 13:32:32;;;;;;;6.43;2.23;;;11.80;86.50;;;;;;5074277;28;20429;-64
2021/03/12 13:34:58;;;;;;;4.03;2.33;;;11.90;88.20;;;;;;5074076;28;20436;-64
2021/03/12 13:37:24;;;;;;;6.20;2.40;;;12.00;88.20;;;;;;5073751;28;20218;-64
2021/03/12 13:39:49;;;;;;;17.60;3.13;;;12.00;86.60;;;;;;5074582;28;20412;-64
2021/03/12 13:42:15;;;;;;;7.80;2.53;;;12.00;86.10;;;;;;5074108;28;20187;-64
2021/03/12 13:44:40;;;;;;;7.40;3.40;;;12.00;86.50;;;;;;5073939;28;20590;-64